createdAt,value
2022-12-12T00:01:55.683Z,-6.00
2022-12-12T00:04:23.582Z,-5.90
2022-12-12T00:06:51.500Z,-6.00
2022-12-12T00:09:20.729Z,-6.10
2022-12-12T00:11:48.610Z,-5.90
2022-12-12T00:14:16.492Z,-5.70
2022-12-12T00:16:44.431Z,-5.70
2022-12-12T00:19:12.408Z,-5.90
2022-12-12T00:21:40.288Z,-6.10
2022-12-12T00:24:08.929Z,-6.00
2022-12-12T00:26:38.309Z,-5.80
2022-12-12T00:29:07.175Z,-5.50
2022-12-12T00:31:35.340Z,-5.50
2022-12-12T00:34:03.353Z,-5.70
2022-12-12T00:36:32.572Z,-5.70
2022-12-12T00:39:00.997Z,-6.00
2022-12-12T00:41:29.526Z,-6.20
2022-12-12T00:43:58.759Z,-6.40
2022-12-12T00:46:27.087Z,-6.10
2022-12-12T00:48:57.237Z,-6.00
2022-12-12T00:51:26.797Z,-6.00
2022-12-12T00:53:54.835Z,-6.10
2022-12-12T00:56:23.948Z,-6.20
2022-12-12T00:58:52.349Z,-6.30
2022-12-12T01:01:24.215Z,-6.10
2022-12-12T01:03:53.730Z,-6.20
2022-12-12T01:06:22.149Z,-6.20
2022-12-12T01:08:50.256Z,-6.20
2022-12-12T01:11:19.044Z,-6.00
2022-12-12T01:13:48.739Z,-6.00
2022-12-12T01:16:16.795Z,-6.10
2022-12-12T01:18:46.108Z,-5.90
2022-12-12T01:21:16.059Z,-5.90
2022-12-12T01:23:44.783Z,-6.00
2022-12-12T01:26:14.846Z,-6.10
2022-12-12T01:28:43.607Z,-6.10
2022-12-12T01:31:12.078Z,-6.20
2022-12-12T01:33:40.061Z,-6.20
2022-12-12T01:36:09.645Z,-6.20
2022-12-12T01:38:37.888Z,-6.30
2022-12-12T01:41:06.081Z,-6.50
2022-12-12T01:43:33.984Z,-6.50
2022-12-12T01:46:40.133Z,-6.40
2022-12-12T01:49:17.936Z,-6.30
2022-12-12T01:51:48.916Z,-6.30
2022-12-12T01:54:20.852Z,-6.60
2022-12-12T01:56:50.440Z,-6.50
2022-12-12T01:59:22.109Z,-6.60
2022-12-12T02:01:50.461Z,-6.50
2022-12-12T02:04:19.392Z,-6.40
2022-12-12T02:06:50.171Z,-6.50
2022-12-12T02:09:18.805Z,-6.40
2022-12-12T02:11:49.376Z,-6.40
2022-12-12T02:14:21.632Z,-6.70
2022-12-12T02:17:22.833Z,-6.80
2022-12-12T02:20:28.827Z,-7.00
2022-12-12T02:23:19.752Z,-7.00
2022-12-12T02:26:10.210Z,-6.90
2022-12-12T02:28:59.857Z,-6.70
2022-12-12T02:31:34.221Z,-6.80
2022-12-12T02:34:08.426Z,-6.80
2022-12-12T02:36:43.265Z,-6.50
2022-12-12T02:39:18.189Z,-6.40
2022-12-12T02:41:52.271Z,-6.20
2022-12-12T02:44:26.997Z,-6.10
2022-12-12T02:47:02.443Z,-6.20
2022-12-12T02:49:34.031Z,-6.20
2022-12-12T02:52:03.076Z,-6.30
2022-12-12T02:54:30.998Z,-6.50
2022-12-12T02:57:00.601Z,-6.20
2022-12-12T02:59:32.418Z,-6.20
2022-12-12T03:02:41.973Z,-6.10
2022-12-12T03:05:42.152Z,-6.20
2022-12-12T03:08:18.764Z,-6.20
2022-12-12T03:10:56.320Z,-5.80
2022-12-12T03:13:33.193Z,-5.90
2022-12-12T03:16:14.428Z,-6.00
2022-12-12T03:18:56.883Z,-5.80
2022-12-12T03:21:31.903Z,-5.40
2022-12-12T03:24:06.904Z,-5.70
2022-12-12T03:26:43.285Z,-5.80
2022-12-12T03:29:14.832Z,-6.00
2022-12-12T03:31:48.390Z,-6.10
2022-12-12T03:34:20.738Z,-6.10
2022-12-12T03:36:52.932Z,-6.20
2022-12-12T03:39:26.301Z,-6.10
2022-12-12T03:42:00.900Z,-6.10
2022-12-12T03:44:38.132Z,-6.20
2022-12-12T03:47:13.678Z,-6.10
2022-12-12T03:49:47.824Z,-6.20
2022-12-12T03:52:22.349Z,-6.10
2022-12-12T03:54:54.825Z,-6.00
2022-12-12T03:57:28.261Z,-6.20
2022-12-12T04:00:00.142Z,-6.30
2022-12-12T04:02:34.009Z,-6.40
2022-12-12T04:05:14.974Z,-6.40
2022-12-12T04:07:46.106Z,-6.30
2022-12-12T04:10:31.332Z,-6.30
2022-12-12T04:13:09.280Z,-6.40
2022-12-12T04:15:57.142Z,-6.60
2022-12-12T04:18:36.050Z,-6.60
2022-12-12T04:21:38.794Z,-6.60
2022-12-12T04:24:18.292Z,-6.40
2022-12-12T04:26:50.278Z,-6.60
2022-12-12T04:29:30.839Z,-6.60
2022-12-12T04:32:06.837Z,-6.50
2022-12-12T04:34:41.769Z,-6.60
2022-12-12T04:37:16.868Z,-6.30
2022-12-12T04:39:46.997Z,-6.20
2022-12-12T04:42:18.051Z,-6.10
2022-12-12T04:44:47.746Z,-5.90
2022-12-12T04:47:16.858Z,-5.80
2022-12-12T04:49:47.762Z,-5.90
2022-12-12T04:52:20.401Z,-5.90
2022-12-12T04:54:52.348Z,-5.90
2022-12-12T04:57:25.463Z,-5.50
2022-12-12T04:59:53.536Z,-5.50
2022-12-12T05:02:31.689Z,-5.40
2022-12-12T05:05:03.762Z,-5.40
2022-12-12T05:07:40.003Z,-5.30
2022-12-12T05:10:11.774Z,-5.60
2022-12-12T05:12:45.756Z,-5.60
2022-12-12T05:15:14.689Z,-5.60
2022-12-12T05:17:46.688Z,-5.60
2022-12-12T05:20:14.963Z,-5.80
2022-12-12T05:22:44.352Z,-5.60
2022-12-12T05:25:13.926Z,-5.60
2022-12-12T05:27:42.203Z,-5.60
2022-12-12T05:30:11.598Z,-5.70
2022-12-12T05:32:39.461Z,-5.70
2022-12-12T05:35:09.104Z,-5.80
2022-12-12T05:37:37.211Z,-5.70
2022-12-12T05:40:09.378Z,-5.60
2022-12-12T05:42:37.235Z,-5.70
2022-12-12T05:45:06.336Z,-5.60
2022-12-12T05:47:34.263Z,-5.60
2022-12-12T05:50:02.112Z,-5.60
2022-12-12T05:52:29.985Z,-5.50
2022-12-12T05:54:57.875Z,-5.60
2022-12-12T05:57:27.127Z,-5.70
2022-12-12T05:59:54.995Z,-5.80
2022-12-12T06:02:22.872Z,-5.70
2022-12-12T06:04:50.791Z,-5.70
2022-12-12T06:07:18.718Z,-5.80
2022-12-12T06:09:46.629Z,-5.90
2022-12-12T06:12:14.516Z,-6.00
2022-12-12T06:14:43.824Z,-6.00
2022-12-12T06:17:11.691Z,-5.90
2022-12-12T06:19:39.571Z,-6.00
2022-12-12T06:22:07.481Z,-6.10
2022-12-12T06:24:35.376Z,-6.10
2022-12-12T06:27:03.266Z,-6.30
2022-12-12T06:29:31.316Z,-6.30
2022-12-12T06:32:00.526Z,-6.40
2022-12-12T06:34:28.459Z,-6.30
2022-12-12T06:36:56.542Z,-6.30
2022-12-12T06:39:24.432Z,-6.30
2022-12-12T06:41:52.338Z,-6.30
2022-12-12T06:44:20.189Z,-6.30
2022-12-12T06:46:48.036Z,-6.30
2022-12-12T06:49:17.271Z,-6.40
2022-12-12T06:51:45.199Z,-6.40
2022-12-12T06:54:13.920Z,-6.50
2022-12-12T06:56:47.679Z,-6.40
2022-12-12T06:59:16.961Z,-6.40
2022-12-12T07:01:45.483Z,-6.60
2022-12-12T07:04:14.337Z,-6.60
2022-12-12T07:06:44.002Z,-6.50
2022-12-12T07:09:12.047Z,-6.60
2022-12-12T07:11:41.231Z,-6.60
2022-12-12T07:14:09.425Z,-6.60
2022-12-12T07:16:37.302Z,-6.50
2022-12-12T07:19:06.004Z,-6.50
2022-12-12T07:21:34.089Z,-6.50
2022-12-12T07:24:03.321Z,-6.50
2022-12-12T07:26:31.240Z,-6.50
2022-12-12T07:28:59.115Z,-6.40
2022-12-12T07:31:27.076Z,-6.50
2022-12-12T07:33:55.377Z,-6.50
2022-12-12T07:36:23.497Z,-6.50
2022-12-12T07:38:52.037Z,-6.50
2022-12-12T07:41:21.607Z,-6.50
2022-12-12T07:43:50.965Z,-6.50
2022-12-12T07:46:21.437Z,-6.50
2022-12-12T07:48:51.796Z,-6.40
2022-12-12T07:51:21.126Z,-6.40
2022-12-12T07:53:49.142Z,-6.40
2022-12-12T07:56:18.332Z,-6.40
2022-12-12T07:58:47.541Z,-6.40
2022-12-12T08:01:17.752Z,-6.40
2022-12-12T08:03:47.137Z,-6.40
2022-12-12T08:06:16.817Z,-6.40
2022-12-12T08:08:44.893Z,-6.60
2022-12-12T08:11:15.304Z,-6.60
2022-12-12T08:13:43.793Z,-6.50
2022-12-12T08:16:17.019Z,-6.50
2022-12-12T08:18:45.125Z,-6.50
2022-12-12T08:21:17.569Z,-6.60
2022-12-12T08:23:49.262Z,-6.60
2022-12-12T08:26:19.114Z,-6.60
2022-12-12T08:28:49.190Z,-6.60
2022-12-12T08:31:20.363Z,-6.50
2022-12-12T08:33:50.570Z,-6.50
2022-12-12T08:36:20.971Z,-6.50
2022-12-12T08:38:49.490Z,-6.60
2022-12-12T08:41:18.370Z,-6.60
2022-12-12T08:43:46.685Z,-6.50
2022-12-12T08:46:18.117Z,-6.40
2022-12-12T08:48:48.529Z,-6.50
2022-12-12T08:51:17.536Z,-6.50
2022-12-12T08:53:45.842Z,-6.50
2022-12-12T08:56:14.135Z,-6.50
2022-12-12T08:58:42.032Z,-6.40
2022-12-12T09:01:12.447Z,-6.50
2022-12-12T09:03:40.594Z,-6.40
2022-12-12T09:06:11.175Z,-6.20
2022-12-12T09:08:39.742Z,-6.10
2022-12-12T09:11:08.474Z,-6.10
2022-12-12T09:13:36.485Z,-6.00
2022-12-12T09:16:05.078Z,-6.00
2022-12-12T09:18:33.157Z,-5.90
2022-12-12T09:21:01.065Z,-5.90
2022-12-12T09:23:30.340Z,-6.00
2022-12-12T09:25:58.745Z,-5.90
2022-12-12T09:28:27.656Z,-5.80
2022-12-12T09:30:55.769Z,-5.70
2022-12-12T09:33:23.666Z,-5.70
2022-12-12T09:35:58.569Z,-5.80
2022-12-12T09:38:27.161Z,-5.80
2022-12-12T09:40:59.105Z,-5.70
2022-12-12T09:43:30.142Z,-5.60
2022-12-12T09:45:59.005Z,-5.40
2022-12-12T09:48:32.002Z,-5.40
2022-12-12T09:50:59.904Z,-5.30
2022-12-12T09:53:28.262Z,-5.40
2022-12-12T09:56:06.420Z,-5.30
2022-12-12T09:58:46.402Z,-5.20
2022-12-12T10:01:24.715Z,-5.00
2022-12-12T10:04:04.281Z,-4.90
2022-12-12T10:06:39.767Z,-4.90
2022-12-12T10:09:23.057Z,-4.80
2022-12-12T10:11:55.339Z,-4.80
2022-12-12T10:14:28.952Z,-4.70
2022-12-12T10:16:58.655Z,-4.60
2022-12-12T10:19:29.625Z,-4.60
2022-12-12T10:22:03.229Z,-4.60
2022-12-12T10:24:37.778Z,-4.50
2022-12-12T10:27:12.599Z,-4.50
2022-12-12T10:29:42.612Z,-4.30
2022-12-12T10:32:21.809Z,-4.40
2022-12-12T10:35:03.828Z,-4.40
2022-12-12T10:37:39.146Z,-4.30
2022-12-12T10:40:22.441Z,-4.30
2022-12-12T10:42:58.051Z,-4.00
2022-12-12T10:45:54.817Z,-4.20
2022-12-12T10:48:22.787Z,-4.10
2022-12-12T10:50:53.898Z,-4.10
2022-12-12T10:53:23.116Z,-4.10
2022-12-12T10:55:55.247Z,-4.40
2022-12-12T10:58:28.218Z,-4.40
2022-12-12T11:01:03.317Z,-4.30
2022-12-12T11:03:36.298Z,-4.30
2022-12-12T11:06:07.345Z,-4.30
2022-12-12T11:08:37.135Z,-4.20
2022-12-12T11:11:08.917Z,-4.20
2022-12-12T11:13:46.500Z,-4.10
2022-12-12T11:16:18.001Z,-4.30
2022-12-12T11:19:00.198Z,-4.10
2022-12-12T11:21:29.596Z,-4.10
2022-12-12T11:23:59.084Z,-4.10
2022-12-12T11:26:29.049Z,-4.00
2022-12-12T11:29:01.229Z,-3.90
2022-12-12T11:31:32.218Z,-3.70
2022-12-12T11:34:03.032Z,-3.80
2022-12-12T11:36:35.124Z,-3.80
2022-12-12T11:39:14.020Z,-3.90
2022-12-12T11:42:01.309Z,-3.80
2022-12-12T11:44:35.312Z,-3.90
2022-12-12T11:47:22.794Z,-3.90
2022-12-12T11:49:52.291Z,-3.80
2022-12-12T11:52:22.530Z,-3.60
2022-12-12T11:54:50.402Z,-3.60
2022-12-12T11:57:33.250Z,-3.50
2022-12-12T12:00:12.418Z,-3.60
2022-12-12T12:03:28.494Z,-3.40
2022-12-12T12:06:12.901Z,-3.10
2022-12-12T12:08:54.463Z,-3.00
2022-12-12T12:14:14.398Z,-3.00
2022-12-12T12:16:52.990Z,-3.10
2022-12-12T12:19:28.461Z,-3.00
2022-12-12T12:22:03.266Z,-3.20
2022-12-12T12:24:52.477Z,-3.30
2022-12-12T12:30:14.234Z,-3.70
2022-12-12T12:32:59.372Z,-3.60
2022-12-12T12:35:30.934Z,-3.60
2022-12-12T12:38:14.497Z,-3.60
2022-12-12T12:41:00.401Z,-3.40
2022-12-12T12:43:44.873Z,-3.50
2022-12-12T12:46:18.244Z,-3.70
2022-12-12T12:48:51.640Z,-3.60
2022-12-12T12:51:22.747Z,-3.60
2022-12-12T12:53:56.715Z,-3.60
2022-12-12T12:56:27.559Z,-3.70
2022-12-12T12:58:59.102Z,-3.50
2022-12-12T13:01:32.030Z,-3.20
2022-12-12T13:04:09.016Z,-3.10
2022-12-12T13:06:43.423Z,-3.00
2022-12-12T13:09:24.994Z,-3.10
2022-12-12T13:11:56.664Z,-3.20
2022-12-12T13:14:36.717Z,-3.30
2022-12-12T13:17:06.877Z,-3.20
2022-12-12T13:19:40.336Z,-3.00
2022-12-12T13:22:14.873Z,-3.00
2022-12-12T13:24:48.220Z,-3.00
2022-12-12T13:27:21.771Z,-2.80
2022-12-12T13:29:53.768Z,-2.70
2022-12-12T13:32:48.021Z,-2.80
2022-12-12T13:35:25.476Z,-3.00
2022-12-12T13:37:55.533Z,-2.90
2022-12-12T13:40:27.980Z,-2.90
2022-12-12T13:43:02.666Z,-3.00
2022-12-12T13:45:42.812Z,-3.10
2022-12-12T13:48:46.023Z,-3.10
2022-12-12T13:51:40.721Z,-3.20
2022-12-12T13:54:50.988Z,-3.10
2022-12-12T13:57:32.598Z,-3.30
2022-12-12T14:00:18.791Z,-3.20
2022-12-12T14:03:01.061Z,-3.20
2022-12-12T14:05:32.567Z,-3.30
2022-12-12T14:08:09.139Z,-3.00
2022-12-12T14:10:42.089Z,-2.80
2022-12-12T14:13:27.988Z,-2.90
2022-12-12T14:16:07.630Z,-3.00
2022-12-12T14:18:40.055Z,-2.90
2022-12-12T14:21:11.104Z,-3.10
2022-12-12T14:23:42.522Z,-3.10
2022-12-12T14:26:48.728Z,-3.10
2022-12-12T14:29:28.132Z,-3.00
2022-12-12T14:32:08.462Z,-3.00
2022-12-12T14:34:47.172Z,-3.00
2022-12-12T14:37:39.626Z,-2.90
2022-12-12T14:40:19.621Z,-2.90
2022-12-12T14:43:19.998Z,-2.90
2022-12-12T14:45:42.552Z,-3.10
2022-12-12T14:48:19.438Z,-3.20
2022-12-12T14:51:01.866Z,-3.20
2022-12-12T14:53:34.761Z,-3.20
2022-12-12T14:56:09.278Z,-3.30
2022-12-12T14:58:40.741Z,-3.20
2022-12-12T15:01:08.938Z,-3.00
2022-12-12T15:03:42.726Z,-3.30
2022-12-12T15:06:21.475Z,-3.40
2022-12-12T15:08:49.483Z,-3.20
2022-12-12T15:11:22.959Z,-3.30
2022-12-12T15:13:52.856Z,-3.40
2022-12-12T15:16:26.443Z,-3.40
2022-12-12T15:18:55.482Z,-3.30
2022-12-12T15:21:23.366Z,-3.50
2022-12-12T15:23:51.300Z,-3.50
2022-12-12T15:26:23.641Z,-3.60
2022-12-12T15:28:51.523Z,-3.60
2022-12-12T15:31:20.323Z,-3.80
2022-12-12T15:33:49.579Z,-3.80
2022-12-12T15:36:20.891Z,-3.70
2022-12-12T15:39:13.945Z,-3.60
2022-12-12T15:41:44.257Z,-3.60
2022-12-12T15:44:18.266Z,-3.70
2022-12-12T15:46:48.542Z,-3.80
2022-12-12T15:49:42.751Z,-3.90
2022-12-12T15:52:20.770Z,-3.70
2022-12-12T15:54:51.132Z,-3.80
2022-12-12T15:57:22.943Z,-3.90
2022-12-12T15:59:56.231Z,-4.00
2022-12-12T16:02:29.229Z,-4.00
2022-12-12T16:05:02.289Z,-4.00
2022-12-12T16:07:36.375Z,-3.90
2022-12-12T16:10:20.909Z,-4.20
2022-12-12T16:13:01.857Z,-4.30
2022-12-12T16:15:38.011Z,-4.40
2022-12-12T16:18:15.324Z,-4.00
2022-12-12T16:20:47.788Z,-4.00
2022-12-12T16:23:27.605Z,-4.00
2022-12-12T16:25:55.926Z,-3.80
2022-12-12T16:28:26.586Z,-4.10
2022-12-12T16:30:57.500Z,-4.20
2022-12-12T16:33:29.903Z,-4.30
2022-12-12T16:36:00.094Z,-4.20
2022-12-12T16:38:29.238Z,-4.30
2022-12-12T16:40:59.998Z,-4.40
2022-12-12T16:43:29.457Z,-4.50
2022-12-12T16:45:58.777Z,-4.20
2022-12-12T16:48:28.524Z,-4.20
2022-12-12T16:50:59.126Z,-4.00
2022-12-12T16:53:27.150Z,-3.80
2022-12-12T16:55:55.616Z,-4.00
2022-12-12T16:58:23.589Z,-3.80
2022-12-12T17:00:54.139Z,-3.80
2022-12-12T17:03:23.395Z,-3.80
2022-12-12T17:05:52.167Z,-3.90
2022-12-12T17:08:21.589Z,-3.80
2022-12-12T17:10:50.918Z,-3.90
2022-12-12T17:13:20.635Z,-4.00
2022-12-12T17:15:48.497Z,-4.10
2022-12-12T17:18:17.762Z,-4.20
2022-12-12T17:20:46.380Z,-4.20
2022-12-12T17:23:28.580Z,-4.10
2022-12-12T17:26:02.985Z,-4.10
2022-12-12T17:28:33.582Z,-4.20
2022-12-12T17:31:01.951Z,-4.10
2022-12-12T17:33:31.214Z,-4.30
2022-12-12T17:36:00.926Z,-4.40
2022-12-12T17:38:30.293Z,-4.50
2022-12-12T17:40:58.514Z,-4.40
2022-12-12T17:43:27.132Z,-4.60
2022-12-12T17:45:59.585Z,-4.70
2022-12-12T17:48:30.057Z,-4.70
2022-12-12T17:51:00.642Z,-4.70
2022-12-12T17:53:32.117Z,-4.80
2022-12-12T17:56:01.068Z,-4.90
2022-12-12T17:58:32.913Z,-5.00
2022-12-12T18:01:01.702Z,-4.90
2022-12-12T18:03:30.522Z,-4.90
2022-12-12T18:06:02.654Z,-5.00
2022-12-12T18:08:30.626Z,-5.00
2022-12-12T18:10:58.524Z,-5.00
2022-12-12T18:13:26.894Z,-5.00
2022-12-12T18:15:56.147Z,-5.10
2022-12-12T18:18:24.322Z,-5.10
2022-12-12T18:20:52.500Z,-5.20
2022-12-12T18:23:21.768Z,-5.20
2022-12-12T18:25:49.637Z,-5.30
2022-12-12T18:28:17.485Z,-5.50
2022-12-12T18:30:45.303Z,-5.70
2022-12-12T18:33:13.123Z,-5.70
2022-12-12T18:35:40.944Z,-5.80
2022-12-12T18:38:08.787Z,-5.70
2022-12-12T18:40:39.172Z,-5.70
2022-12-12T18:43:07.349Z,-5.70
2022-12-12T18:45:37.498Z,-6.00
2022-12-12T18:48:05.708Z,-6.10
2022-12-12T18:50:34.552Z,-5.90
2022-12-12T18:53:02.395Z,-6.00
2022-12-12T18:55:30.812Z,-6.00
2022-12-12T18:58:00.979Z,-5.90
2022-12-12T19:00:28.898Z,-5.80
2022-12-12T19:02:56.743Z,-5.80
2022-12-12T19:05:24.585Z,-5.80
2022-12-12T19:07:52.605Z,-5.80
2022-12-12T19:10:20.632Z,-5.80
2022-12-12T19:12:48.491Z,-5.90
2022-12-12T19:15:18.238Z,-5.90
2022-12-12T19:17:46.269Z,-5.80
2022-12-12T19:20:14.471Z,-5.90
2022-12-12T19:22:46.586Z,-5.90
2022-12-12T19:25:15.146Z,-5.90
2022-12-12T19:27:43.021Z,-6.00
2022-12-12T19:30:12.653Z,-5.90
2022-12-12T19:32:42.190Z,-6.00
2022-12-12T19:35:10.834Z,-6.00
2022-12-12T19:37:38.685Z,-6.10
2022-12-12T19:40:07.664Z,-6.00
2022-12-12T19:42:35.510Z,-6.00
2022-12-12T19:45:04.364Z,-6.10
2022-12-12T19:47:33.348Z,-6.10
2022-12-12T19:50:02.600Z,-5.90
2022-12-12T19:52:30.467Z,-5.90
2022-12-12T19:54:58.329Z,-5.90
2022-12-12T19:57:26.434Z,-5.80
2022-12-12T19:59:54.371Z,-5.90
2022-12-12T20:02:22.288Z,-5.80
2022-12-12T20:04:50.248Z,-5.80
2022-12-12T20:07:19.467Z,-5.70
2022-12-12T20:09:47.283Z,-5.70
2022-12-12T20:12:15.150Z,-5.70
2022-12-12T20:14:43.012Z,-5.50
2022-12-12T20:17:10.882Z,-5.60
2022-12-12T20:19:39.140Z,-5.40
2022-12-12T20:22:06.998Z,-5.40
2022-12-12T20:24:37.360Z,-5.50
2022-12-12T20:27:05.578Z,-5.40
2022-12-12T20:29:33.662Z,-5.40
2022-12-12T20:32:01.870Z,-5.40
2022-12-12T20:34:30.241Z,-5.30
2022-12-12T20:36:58.625Z,-5.30
2022-12-12T20:39:26.556Z,-5.30
2022-12-12T20:41:56.909Z,-5.30
2022-12-12T20:44:25.513Z,-5.40
2022-12-12T20:46:54.040Z,-5.50
2022-12-12T20:49:24.631Z,-5.50
2022-12-12T20:51:57.734Z,-5.50
2022-12-12T20:54:28.018Z,-5.50
2022-12-12T20:56:58.216Z,-5.60
2022-12-12T20:59:26.239Z,-5.60
2022-12-12T21:01:54.470Z,-5.50
2022-12-12T21:04:24.069Z,-5.40
2022-12-12T21:06:52.239Z,-5.40
2022-12-12T21:09:25.595Z,-5.40
2022-12-12T21:11:55.375Z,-5.40
2022-12-12T21:14:25.193Z,-5.50
2022-12-12T21:16:53.590Z,-5.50
2022-12-12T21:19:23.147Z,-5.30
2022-12-12T21:21:51.494Z,-5.20
2022-12-12T21:24:19.810Z,-5.10
2022-12-12T21:26:48.055Z,-5.10
2022-12-12T21:29:17.051Z,-5.20
2022-12-12T21:31:51.707Z,-5.30
2022-12-12T21:34:21.028Z,-5.40
2022-12-12T21:36:51.914Z,-5.30
2022-12-12T21:39:20.241Z,-5.30
2022-12-12T21:41:48.097Z,-5.20
2022-12-12T21:44:16.020Z,-5.10
2022-12-12T21:46:44.226Z,-5.10
2022-12-12T21:49:30.683Z,-5.00
2022-12-12T21:52:00.083Z,-5.10
2022-12-12T21:54:29.699Z,-5.10
2022-12-12T21:56:58.484Z,-5.00
2022-12-12T21:59:27.411Z,-4.90
2022-12-12T22:01:56.385Z,-5.00
2022-12-12T22:04:26.406Z,-5.00
2022-12-12T22:06:54.264Z,-4.90
2022-12-12T22:09:22.218Z,-5.00
2022-12-12T22:11:50.483Z,-4.80
2022-12-12T22:14:19.800Z,-4.80
2022-12-12T22:16:47.717Z,-4.90
2022-12-12T22:19:17.082Z,-4.80
2022-12-12T22:21:47.593Z,-4.80
2022-12-12T22:24:15.747Z,-4.90
2022-12-12T22:26:45.432Z,-5.20
2022-12-12T22:29:16.369Z,-5.20
2022-12-12T22:31:45.627Z,-5.20
2022-12-12T22:34:15.843Z,-5.20
2022-12-12T22:36:44.703Z,-5.30
2022-12-12T22:39:15.544Z,-5.50
2022-12-12T22:41:43.388Z,-5.50
2022-12-12T22:44:15.603Z,-5.50
2022-12-12T22:46:44.595Z,-5.40
2022-12-12T22:49:13.753Z,-5.40
2022-12-12T22:51:42.407Z,-5.30
2022-12-12T22:54:10.297Z,-5.10
2022-12-12T22:56:40.988Z,-5.00
2022-12-12T22:59:10.964Z,-5.10
2022-12-12T23:01:38.812Z,-5.10
2022-12-12T23:04:07.154Z,-5.20
2022-12-12T23:06:36.404Z,-5.20
2022-12-12T23:09:06.979Z,-5.20
2022-12-12T23:11:36.564Z,-5.10
2022-12-12T23:14:07.515Z,-5.10
2022-12-12T23:16:36.313Z,-4.90
2022-12-12T23:19:06.088Z,-5.00
2022-12-12T23:21:35.745Z,-5.10
2022-12-12T23:24:04.178Z,-5.20
2022-12-12T23:26:36.538Z,-5.20
2022-12-12T23:29:09.027Z,-5.30
2022-12-12T23:31:38.883Z,-5.10
2022-12-12T23:34:08.796Z,-4.90
2022-12-12T23:36:38.075Z,-5.00
2022-12-12T23:39:08.447Z,-5.20
2022-12-12T23:41:37.072Z,-5.00
2022-12-12T23:44:07.518Z,-5.00
2022-12-12T23:46:36.312Z,-4.80
2022-12-12T23:49:06.903Z,-4.80
2022-12-12T23:51:37.506Z,-4.80
2022-12-12T23:54:08.091Z,-4.80
2022-12-12T23:56:36.737Z,-4.80
2022-12-12T23:59:06.720Z,-5.00
